Terminal Aerodrome Forecast
Issued by NWS

Home | Current Version | Previous Version | Text Only | Print | Product List | Glossary On
Versions: 1 2 3 4 5 6 7 8 9 10 11 12 13
000
FTUS44 KJAN 292342
TAFHKS
TAF
KHKS 292342Z 3000/3024 04010G25KT P6SM VCTS SCT050 BKN080CB
     FM300045 VRB05KT P6SM FEW060 SCT200
     FM301400 36007KT P6SM SCT040 BKN060
     FM301900 36009KT P6SM VCTS SCT050 BKN070CB=

USA.gov is the U.S. government's official web portal to all federal, state and local government web resources and services.